Etusivu
METAR-TAF:

METAR-TAF

Lentoasemat :

Nadi, Fidži

Nadin kansainvälinen lentoasema

Leveyspiiri: 17-45S, Pituuspiiri: 177-27E, korkeus merenpinnasta: 13 m

Tämänhetkinen sää

Tämä raportti tehtiin 14 minuuttia sitten, kello 01.00 UTC
Tuuli 10 kn lännestä
Lämpötila 28°C
Kosteus 62%
Ilmanpaine 1011 hPa
Näkyvyys 10 km tai enemmän
Muutamia pilviä 3000 ft:n korkeudessa

METAR: NFFN 250100Z 26010KT 9999 FEW030 28/20 Q1011 NOSIG

Aika: 13:14 (01:14 UTC)

Sääennuste

Tämä raportti tehtiin 2 tuntia ja 12 minuuttia sitten, kello 23.02 UTC
Ennuste voimassa 25. päivästä klo 00 UTC - 25. päivään klo 24 UTC
Tuuli 10 kn lännestä
Näkyvyys 10 km tai enemmän
Muutamia pilviä 2500 ft:n korkeudessa
Tulossa
25. päivästä klo 04 UTC - 25. päivään klo 06 UTC
Tuuli 7 kn idästä
Tulossa
25. päivästä klo 22 UTC - 25. päivään klo 24 UTC
Tuuli 10 kn lännestä

TAF: NFFN 242302Z 2500/2524 28010KT 9999 FEW025 BECMG 2504/2506 08007KT BECMG 2522/2524 28010KT

Säähavainnot ja -ennusteet yli 4000 lentoasemalta (METAR- ja TAF-raportit).

Käytössä olevat sääasemat on merkitty karttaan keltaisilla ja punaisilla pisteillä.

Aseta hiiri pisteen päälle nähdäksesi sääaseman nimen.

Klikkaa sitten nähdäksesi säähavainnot ja -ennusteet.

Kartan vaihtaminen: klikkaa mustalla rastilla varustettuja vihreitä pisteitä, niin voit zoomata sisään; viivalla varustettua vihreää pistettä, niin voit zoomata ulos tai vihreitä nuolia, niin pääset viereisille kartoille.


METAR-TAF: